CheckWX is a tool to help pilots better visualize weather data.  It is not intended as a substitute for an official pre-flight weather briefing.

02:02:55 UTC

OJAM TAF
Amman-Marka International Airport
Amman, Jordan
TAF OJAM 182250Z 1900/2006 VRB02KT CAVOK TEMPO 1904/1906 3000 FU BECMG 1906/1908 04008KT 5000 HZ NSC

Mar-19@
00:00 UTC

Mar-19 @ 00:00 UTC

Mar-19@
06:00 UTC

Mar-19 @ 06:00 UTC

TAF OJAM 182250Z 1900/2006 VRB02KT CAVOK
Wind
  • Variable at 2 KTS
Conditions
No significant weather
Cloud Levels
  • No significant clouds

Mar-19@
04:00 UTC

Mar-19 @ 04:00 UTC

Mar-19@
06:00 UTC

Mar-19 @ 06:00 UTC

TEMPO 1904/1906 3000 FU

Temporary

Temporary Changes expected for less than half the time period

Conditions
Smoke

Mar-19@
06:00 UTC

Mar-19 @ 06:00 UTC

Mar-20@
06:00 UTC

Mar-20 @ 06:00 UTC

BECMG 1906/1908 04008KT 5000 HZ NSC

Becoming

Becoming Conditions expected by Tue, Mar 19, 2019 @ 08:00 UTC

Wind
  • 040° at 8 KTS
Conditions
Haze
Cloud Levels
  • No significant clouds